BWI weather

Baltimore/Washington International Thurgood Marshall Airport
Baltimore, Maryland, United States

Public forecast

Using degrees Fahrenheit for public forecast. Weather courtesy of forecast.io.

METAR (pilot weather report)

Retrieved 2018/06/19 07:54 UTC (9 minutes ago):

KBWI 190754Z 26007KT 10SM BKN250 26/22 A2982 RMK AO2 SLP096 T02610222

TAF (pilot weather forecast)

Retrieved 2018/06/19 06:42 UTC (1 hour ago):

TAF KBWI 190541Z 1906/2012 24006KT P6SM SCT250 FM190800 29008G16KT P6SM BKN060 FM191300 30007KT P6SM SCT035 BKN250 FM191700 34008KT P6SM BKN040 FM200400 VRB03KT P6SM BKN100